sensor_id;sensor_type;location;lat;lon;timestamp;P1;durP1;ratioP1;P2;durP2;ratioP2
49566;SDS011;35472;50.514;30.448;2022-09-02T00:00:16;5.70;;;4.30;;
49566;SDS011;35472;50.514;30.448;2022-09-02T00:02:45;5.80;;;4.25;;
49566;SDS011;35472;50.514;30.448;2022-09-02T00:05:13;5.38;;;3.78;;
49566;SDS011;35472;50.514;30.448;2022-09-02T00:07:39;5.63;;;3.13;;
49566;SDS011;35472;50.514;30.448;2022-09-02T00:10:04;8.60;;;5.07;;
49566;SDS011;35472;50.514;30.448;2022-09-02T00:12:30;7.30;;;4.60;;
49566;SDS011;35472;50.514;30.448;2022-09-02T00:14:55;7.80;;;5.10;;
49566;SDS011;35472;50.514;30.448;2022-09-02T00:17:20;8.77;;;4.25;;
49566;SDS011;35472;50.514;30.448;2022-09-02T00:19:46;7.63;;;5.00;;
49566;SDS011;35472;50.514;30.448;2022-09-02T00:22:11;7.78;;;4.93;;
49566;SDS011;35472;50.514;30.448;2022-09-02T00:24:37;9.45;;;4.85;;
49566;SDS011;35472;50.514;30.448;2022-09-02T00:27:02;6.15;;;4.95;;
49566;SDS011;35472;50.514;30.448;2022-09-02T00:29:28;7.47;;;5.57;;
49566;SDS011;35472;50.514;30.448;2022-09-02T00:31:54;6.18;;;4.80;;
49566;SDS011;35472;50.514;30.448;2022-09-02T00:34:19;10.50;;;6.00;;
49566;SDS011;35472;50.514;30.448;2022-09-02T00:36:45;9.75;;;5.85;;
49566;SDS011;35472;50.514;30.448;2022-09-02T00:39:10;10.70;;;5.38;;
49566;SDS011;35472;50.514;30.448;2022-09-02T00:41:40;8.45;;;5.75;;
49566;SDS011;35472;50.514;30.448;2022-09-02T00:44:09;8.00;;;5.70;;
49566;SDS011;35472;50.514;30.448;2022-09-02T00:46:36;6.68;;;5.30;;
49566;SDS011;35472;50.514;30.448;2022-09-02T00:52:12;9.48;;;5.93;;
49566;SDS011;35472;50.514;30.448;2022-09-02T00:54:52;9.10;;;5.78;;
49566;SDS011;35472;50.514;30.448;2022-09-02T00:57:39;11.35;;;5.85;;
49566;SDS011;35472;50.514;30.448;2022-09-02T01:02:36;7.90;;;4.97;;
49566;SDS011;35472;50.514;30.448;2022-09-02T01:05:10;7.07;;;5.30;;
49566;SDS011;35472;50.514;30.448;2022-09-02T01:07:38;7.53;;;4.88;;
49566;SDS011;35472;50.514;30.448;2022-09-02T01:10:07;8.50;;;4.53;;
49566;SDS011;35472;50.514;30.448;2022-09-02T01:12:35;10.68;;;4.93;;
49566;SDS011;35472;50.514;30.448;2022-09-02T01:15:02;8.20;;;4.80;;
49566;SDS011;35472;50.514;30.448;2022-09-02T01:17:30;9.63;;;4.13;;
49566;SDS011;35472;50.514;30.448;2022-09-02T01:20:00;5.82;;;3.67;;
49566;SDS011;35472;50.514;30.448;2022-09-02T01:22:30;7.25;;;4.68;;
49566;SDS011;35472;50.514;30.448;2022-09-02T01:24:59;6.90;;;4.45;;
49566;SDS011;35472;50.514;30.448;2022-09-02T01:27:28;6.07;;;4.63;;
49566;SDS011;35472;50.514;30.448;2022-09-02T01:29:55;6.97;;;4.85;;
49566;SDS011;35472;50.514;30.448;2022-09-02T01:32:24;6.07;;;4.13;;
49566;SDS011;35472;50.514;30.448;2022-09-02T01:34:52;9.13;;;4.63;;
49566;SDS011;35472;50.514;30.448;2022-09-02T01:37:18;8.13;;;4.75;;
49566;SDS011;35472;50.514;30.448;2022-09-02T01:39:44;5.78;;;4.20;;
49566;SDS011;35472;50.514;30.448;2022-09-02T01:42:10;4.97;;;3.38;;
49566;SDS011;35472;50.514;30.448;2022-09-02T01:44:38;6.68;;;4.65;;
49566;SDS011;35472;50.514;30.448;2022-09-02T01:47:09;9.07;;;4.05;;
49566;SDS011;35472;50.514;30.448;2022-09-02T01:49:35;6.53;;;3.83;;
49566;SDS011;35472;50.514;30.448;2022-09-02T01:52:02;7.30;;;4.68;;
49566;SDS011;35472;50.514;30.448;2022-09-02T01:54:28;5.25;;;3.42;;
49566;SDS011;35472;50.514;30.448;2022-09-02T01:56:54;6.72;;;4.20;;
49566;SDS011;35472;50.514;30.448;2022-09-02T01:59:21;5.28;;;4.20;;
49566;SDS011;35472;50.514;30.448;2022-09-02T02:01:47;4.38;;;3.30;;
49566;SDS011;35472;50.514;30.448;2022-09-02T02:04:13;7.15;;;4.25;;
49566;SDS011;35472;50.514;30.448;2022-09-02T02:06:41;7.88;;;4.72;;
49566;SDS011;35472;50.514;30.448;2022-09-02T02:09:08;6.93;;;5.28;;
49566;SDS011;35472;50.514;30.448;2022-09-02T02:11:34;12.00;;;6.93;;
49566;SDS011;35472;50.514;30.448;2022-09-02T02:14:00;12.05;;;5.75;;
49566;SDS011;35472;50.514;30.448;2022-09-02T02:16:25;10.93;;;5.60;;
49566;SDS011;35472;50.514;30.448;2022-09-02T02:18:51;11.13;;;7.40;;
49566;SDS011;35472;50.514;30.448;2022-09-02T02:21:18;11.35;;;6.85;;
49566;SDS011;35472;50.514;30.448;2022-09-02T02:23:43;11.43;;;6.30;;
49566;SDS011;35472;50.514;30.448;2022-09-02T02:26:09;15.75;;;9.65;;
49566;SDS011;35472;50.514;30.448;2022-09-02T02:28:34;12.40;;;8.80;;
49566;SDS011;35472;50.514;30.448;2022-09-02T02:31:02;11.30;;;7.63;;
49566;SDS011;35472;50.514;30.448;2022-09-02T02:33:29;15.30;;;8.75;;
49566;SDS011;35472;50.514;30.448;2022-09-02T02:35:55;17.23;;;9.90;;
49566;SDS011;35472;50.514;30.448;2022-09-02T02:38:21;18.33;;;10.85;;
49566;SDS011;35472;50.514;30.448;2022-09-02T02:40:48;14.27;;;9.98;;
49566;SDS011;35472;50.514;30.448;2022-09-02T02:43:18;18.58;;;11.15;;
49566;SDS011;35472;50.514;30.448;2022-09-02T02:45:45;16.08;;;9.90;;
49566;SDS011;35472;50.514;30.448;2022-09-02T02:48:11;17.98;;;10.23;;
49566;SDS011;35472;50.514;30.448;2022-09-02T02:50:38;16.23;;;10.65;;
49566;SDS011;35472;50.514;30.448;2022-09-02T02:53:04;19.40;;;9.52;;
49566;SDS011;35472;50.514;30.448;2022-09-02T02:55:30;13.65;;;9.20;;
49566;SDS011;35472;50.514;30.448;2022-09-02T02:57:56;19.20;;;11.32;;
49566;SDS011;35472;50.514;30.448;2022-09-02T03:00:23;14.25;;;10.25;;
49566;SDS011;35472;50.514;30.448;2022-09-02T03:02:53;16.90;;;10.88;;
49566;SDS011;35472;50.514;30.448;2022-09-02T03:05:20;23.05;;;14.57;;
49566;SDS011;35472;50.514;30.448;2022-09-02T03:07:46;42.50;;;23.98;;
49566;SDS011;35472;50.514;30.448;2022-09-02T03:10:13;48.75;;;28.00;;
49566;SDS011;35472;50.514;30.448;2022-09-02T03:12:41;55.72;;;33.65;;
49566;SDS011;35472;50.514;30.448;2022-09-02T03:15:09;60.78;;;34.95;;
49566;SDS011;35472;50.514;30.448;2022-09-02T03:17:37;67.47;;;37.15;;
49566;SDS011;35472;50.514;30.448;2022-09-02T03:20:03;60.13;;;35.13;;
49566;SDS011;35472;50.514;30.448;2022-09-02T03:22:34;64.10;;;38.72;;
49566;SDS011;35472;50.514;30.448;2022-09-02T03:25:04;71.13;;;39.67;;
49566;SDS011;35472;50.514;30.448;2022-09-02T03:27:31;69.80;;;42.20;;
49566;SDS011;35472;50.514;30.448;2022-09-02T03:29:59;72.38;;;42.67;;
49566;SDS011;35472;50.514;30.448;2022-09-02T03:32:25;79.63;;;45.58;;
49566;SDS011;35472;50.514;30.448;2022-09-02T03:34:52;82.32;;;51.60;;
49566;SDS011;35472;50.514;30.448;2022-09-02T03:37:19;85.22;;;49.83;;
49566;SDS011;35472;50.514;30.448;2022-09-02T03:39:45;83.18;;;46.85;;
49566;SDS011;35472;50.514;30.448;2022-09-02T03:42:11;81.00;;;45.40;;
49566;SDS011;35472;50.514;30.448;2022-09-02T03:44:37;89.47;;;47.67;;
49566;SDS011;35472;50.514;30.448;2022-09-02T03:47:04;77.70;;;42.45;;
49566;SDS011;35472;50.514;30.448;2022-09-02T03:49:30;77.30;;;43.58;;
49566;SDS011;35472;50.514;30.448;2022-09-02T03:51:56;72.13;;;43.42;;
49566;SDS011;35472;50.514;30.448;2022-09-02T03:54:22;76.53;;;42.88;;
49566;SDS011;35472;50.514;30.448;2022-09-02T03:56:47;75.90;;;41.67;;
49566;SDS011;35472;50.514;30.448;2022-09-02T03:59:14;73.50;;;42.75;;
49566;SDS011;35472;50.514;30.448;2022-09-02T04:01:39;73.45;;;41.80;;
49566;SDS011;35472;50.514;30.448;2022-09-02T04:04:05;62.65;;;40.95;;
49566;SDS011;35472;50.514;30.448;2022-09-02T04:06:34;66.20;;;36.03;;
49566;SDS011;35472;50.514;30.448;2022-09-02T04:09:01;68.25;;;38.85;;
49566;SDS011;35472;50.514;30.448;2022-09-02T04:11:28;55.72;;;35.78;;
49566;SDS011;35472;50.514;30.448;2022-09-02T04:13:53;57.28;;;33.30;;
49566;SDS011;35472;50.514;30.448;2022-09-02T04:16:23;56.72;;;33.97;;
49566;SDS011;35472;50.514;30.448;2022-09-02T04:18:55;55.75;;;32.03;;
49566;SDS011;35472;50.514;30.448;2022-09-02T04:21:23;42.70;;;27.52;;
49566;SDS011;35472;50.514;30.448;2022-09-02T04:23:49;47.78;;;28.02;;
49566;SDS011;35472;50.514;30.448;2022-09-02T04:26:17;44.90;;;28.08;;
49566;SDS011;35472;50.514;30.448;2022-09-02T04:28:44;41.42;;;26.13;;
49566;SDS011;35472;50.514;30.448;2022-09-02T04:31:12;39.42;;;25.30;;
49566;SDS011;35472;50.514;30.448;2022-09-02T04:33:41;47.80;;;26.15;;
49566;SDS011;35472;50.514;30.448;2022-09-02T04:36:12;44.60;;;26.20;;
49566;SDS011;35472;50.514;30.448;2022-09-02T04:38:39;40.72;;;25.00;;
49566;SDS011;35472;50.514;30.448;2022-09-02T04:41:07;40.50;;;24.45;;
49566;SDS011;35472;50.514;30.448;2022-09-02T04:43:49;40.00;;;26.77;;
49566;SDS011;35472;50.514;30.448;2022-09-02T04:46:15;39.03;;;25.25;;
49566;SDS011;35472;50.514;30.448;2022-09-02T04:48:43;42.20;;;25.80;;
49566;SDS011;35472;50.514;30.448;2022-09-02T04:51:20;45.72;;;28.50;;
49566;SDS011;35472;50.514;30.448;2022-09-02T04:53:48;45.17;;;29.67;;
49566;SDS011;35472;50.514;30.448;2022-09-02T04:56:17;54.67;;;34.40;;
49566;SDS011;35472;50.514;30.448;2022-09-02T04:58:46;59.85;;;38.00;;
49566;SDS011;35472;50.514;30.448;2022-09-02T05:01:17;69.05;;;42.67;;
49566;SDS011;35472;50.514;30.448;2022-09-02T05:03:48;85.85;;;55.92;;
49566;SDS011;35472;50.514;30.448;2022-09-02T05:06:18;80.90;;;54.55;;
49566;SDS011;35472;50.514;30.448;2022-09-02T05:08:53;87.97;;;59.83;;
49566;SDS011;35472;50.514;30.448;2022-09-02T05:11:23;81.28;;;54.97;;
49566;SDS011;35472;50.514;30.448;2022-09-02T05:13:55;72.15;;;48.08;;
49566;SDS011;35472;50.514;30.448;2022-09-02T05:16:25;67.78;;;44.97;;
49566;SDS011;35472;50.514;30.448;2022-09-02T05:18:53;52.65;;;37.88;;
49566;SDS011;35472;50.514;30.448;2022-09-02T05:21:22;50.88;;;33.13;;
49566;SDS011;35472;50.514;30.448;2022-09-02T05:23:49;37.95;;;25.20;;
49566;SDS011;35472;50.514;30.448;2022-09-02T05:26:16;36.88;;;24.15;;
49566;SDS011;35472;50.514;30.448;2022-09-02T05:28:42;31.95;;;22.58;;
49566;SDS011;35472;50.514;30.448;2022-09-02T05:31:12;29.65;;;22.08;;
49566;SDS011;35472;50.514;30.448;2022-09-02T05:33:42;35.58;;;21.33;;
49566;SDS011;35472;50.514;30.448;2022-09-02T05:36:12;30.83;;;21.52;;
49566;SDS011;35472;50.514;30.448;2022-09-02T05:38:40;30.13;;;19.58;;
49566;SDS011;35472;50.514;30.448;2022-09-02T05:41:08;26.10;;;19.73;;
49566;SDS011;35472;50.514;30.448;2022-09-02T05:43:37;29.83;;;19.75;;
49566;SDS011;35472;50.514;30.448;2022-09-02T05:46:04;26.77;;;18.45;;
49566;SDS011;35472;50.514;30.448;2022-09-02T05:48:33;27.10;;;19.60;;
49566;SDS011;35472;50.514;30.448;2022-09-02T05:51:19;33.03;;;20.77;;
49566;SDS011;35472;50.514;30.448;2022-09-02T05:53:45;30.58;;;19.10;;
49566;SDS011;35472;50.514;30.448;2022-09-02T05:56:11;21.33;;;17.45;;
49566;SDS011;35472;50.514;30.448;2022-09-02T05:58:37;25.67;;;17.13;;
49566;SDS011;35472;50.514;30.448;2022-09-02T06:01:11;30.48;;;19.08;;
49566;SDS011;35472;50.514;30.448;2022-09-02T06:03:38;25.27;;;17.05;;
49566;SDS011;35472;50.514;30.448;2022-09-02T06:06:06;24.38;;;15.93;;
49566;SDS011;35472;50.514;30.448;2022-09-02T06:08:34;20.95;;;14.77;;
49566;SDS011;35472;50.514;30.448;2022-09-02T06:11:00;17.95;;;13.65;;
49566;SDS011;35472;50.514;30.448;2022-09-02T06:13:28;17.38;;;12.88;;
49566;SDS011;35472;50.514;30.448;2022-09-02T06:15:55;15.75;;;12.93;;
49566;SDS011;35472;50.514;30.448;2022-09-02T06:18:25;22.10;;;11.40;;
49566;SDS011;35472;50.514;30.448;2022-09-02T06:20:50;14.35;;;9.98;;
49566;SDS011;35472;50.514;30.448;2022-09-02T06:23:16;16.73;;;11.10;;
49566;SDS011;35472;50.514;30.448;2022-09-02T06:25:43;16.10;;;10.80;;
49566;SDS011;35472;50.514;30.448;2022-09-02T06:28:11;14.13;;;10.00;;
49566;SDS011;35472;50.514;30.448;2022-09-02T06:30:41;13.70;;;9.55;;
49566;SDS011;35472;50.514;30.448;2022-09-02T07:02:27;7.32;;;6.07;;
49566;SDS011;35472;50.514;30.448;2022-09-02T07:04:53;8.27;;;6.65;;
49566;SDS011;35472;50.514;30.448;2022-09-02T07:07:38;11.80;;;7.60;;
49566;SDS011;35472;50.514;30.448;2022-09-02T07:10:09;9.65;;;7.63;;
49566;SDS011;35472;50.514;30.448;2022-09-02T07:12:38;8.18;;;6.10;;
49566;SDS011;35472;50.514;30.448;2022-09-02T07:15:07;10.48;;;6.85;;
49566;SDS011;35472;50.514;30.448;2022-09-02T07:17:38;8.85;;;6.18;;
49566;SDS011;35472;50.514;30.448;2022-09-02T07:20:08;9.10;;;6.75;;
49566;SDS011;35472;50.514;30.448;2022-09-02T07:22:41;8.07;;;5.90;;
49566;SDS011;35472;50.514;30.448;2022-09-02T07:25:08;8.85;;;5.30;;
49566;SDS011;35472;50.514;30.448;2022-09-02T07:27:35;6.95;;;5.53;;
49566;SDS011;35472;50.514;30.448;2022-09-02T07:30:01;7.72;;;5.72;;
49566;SDS011;35472;50.514;30.448;2022-09-02T07:32:29;7.72;;;4.50;;
49566;SDS011;35472;50.514;30.448;2022-09-02T07:34:55;5.90;;;4.13;;
49566;SDS011;35472;50.514;30.448;2022-09-02T07:37:20;8.30;;;5.35;;
49566;SDS011;35472;50.514;30.448;2022-09-02T07:39:46;6.70;;;4.60;;
49566;SDS011;35472;50.514;30.448;2022-09-02T07:42:14;6.35;;;4.07;;
49566;SDS011;35472;50.514;30.448;2022-09-02T07:44:40;10.02;;;5.80;;
49566;SDS011;35472;50.514;30.448;2022-09-02T07:47:07;6.10;;;4.90;;
49566;SDS011;35472;50.514;30.448;2022-09-02T07:49:36;8.63;;;5.00;;
49566;SDS011;35472;50.514;30.448;2022-09-02T07:52:02;7.97;;;4.78;;
49566;SDS011;35472;50.514;30.448;2022-09-02T07:54:28;6.60;;;4.90;;
49566;SDS011;35472;50.514;30.448;2022-09-02T07:56:54;5.35;;;3.60;;
49566;SDS011;35472;50.514;30.448;2022-09-02T07:59:21;5.32;;;2.58;;
49566;SDS011;35472;50.514;30.448;2022-09-02T08:01:49;3.20;;;2.42;;
49566;SDS011;35472;50.514;30.448;2022-09-02T08:04:16;4.97;;;3.50;;
49566;SDS011;35472;50.514;30.448;2022-09-02T08:06:44;4.97;;;2.30;;
49566;SDS011;35472;50.514;30.448;2022-09-02T08:09:10;1.48;;;1.33;;
49566;SDS011;35472;50.514;30.448;2022-09-02T08:11:41;2.42;;;1.98;;
49566;SDS011;35472;50.514;30.448;2022-09-02T08:14:10;6.30;;;2.22;;
49566;SDS011;35472;50.514;30.448;2022-09-02T08:16:38;2.58;;;1.55;;
49566;SDS011;35472;50.514;30.448;2022-09-02T08:19:04;4.45;;;1.98;;
49566;SDS011;35472;50.514;30.448;2022-09-02T08:21:31;3.67;;;2.22;;
49566;SDS011;35472;50.514;30.448;2022-09-02T08:23:56;2.63;;;1.85;;
49566;SDS011;35472;50.514;30.448;2022-09-02T08:26:22;2.80;;;1.73;;
49566;SDS011;35472;50.514;30.448;2022-09-02T08:28:49;3.63;;;1.90;;
49566;SDS011;35472;50.514;30.448;2022-09-02T08:31:15;3.80;;;1.80;;
49566;SDS011;35472;50.514;30.448;2022-09-02T08:33:40;5.80;;;1.55;;
49566;SDS011;35472;50.514;30.448;2022-09-02T08:36:06;1.77;;;1.10;;
49566;SDS011;35472;50.514;30.448;2022-09-02T08:38:35;3.05;;;2.15;;
49566;SDS011;35472;50.514;30.448;2022-09-02T08:41:00;2.60;;;2.40;;
49566;SDS011;35472;50.514;30.448;2022-09-02T08:43:37;3.40;;;2.67;;
49566;SDS011;35472;50.514;30.448;2022-09-02T08:46:06;4.13;;;2.60;;
49566;SDS011;35472;50.514;30.448;2022-09-02T08:48:36;3.25;;;2.55;;
49566;SDS011;35472;50.514;30.448;2022-09-02T08:51:07;3.63;;;1.90;;
49566;SDS011;35472;50.514;30.448;2022-09-02T08:53:46;3.40;;;2.17;;
49566;SDS011;35472;50.514;30.448;2022-09-02T08:56:16;2.88;;;1.88;;
49566;SDS011;35472;50.514;30.448;2022-09-02T08:58:44;7.70;;;2.42;;
49566;SDS011;35472;50.514;30.448;2022-09-02T09:14:58;4.78;;;2.40;;
49566;SDS011;35472;50.514;30.448;2022-09-02T09:17:41;4.85;;;2.42;;
49566;SDS011;35472;50.514;30.448;2022-09-02T09:20:15;6.28;;;2.47;;
49566;SDS011;35472;50.514;30.448;2022-09-02T09:22:46;4.65;;;2.42;;
49566;SDS011;35472;50.514;30.448;2022-09-02T09:25:14;3.15;;;2.22;;
49566;SDS011;35472;50.514;30.448;2022-09-02T09:27:41;6.68;;;2.85;;
49566;SDS011;35472;50.514;30.448;2022-09-02T09:30:07;5.72;;;2.25;;
49566;SDS011;35472;50.514;30.448;2022-09-02T09:32:42;4.70;;;2.67;;
49566;SDS011;35472;50.514;30.448;2022-09-02T09:35:12;5.85;;;2.60;;
49566;SDS011;35472;50.514;30.448;2022-09-02T09:43:31;4.00;;;3.00;;
49566;SDS011;35472;50.514;30.448;2022-09-02T09:45:41;5.00;;;2.75;;
49566;SDS011;35472;50.514;30.448;2022-09-02T09:50:48;5.40;;;3.67;;
49566;SDS011;35472;50.514;30.448;2022-09-02T09:53:35;6.45;;;2.67;;
49566;SDS011;35472;50.514;30.448;2022-09-02T09:58:46;5.10;;;3.53;;
49566;SDS011;35472;50.514;30.448;2022-09-02T10:01:14;4.85;;;3.60;;
49566;SDS011;35472;50.514;30.448;2022-09-02T10:03:44;5.85;;;3.47;;
49566;SDS011;35472;50.514;30.448;2022-09-02T10:06:55;6.18;;;3.92;;
49566;SDS011;35472;50.514;30.448;2022-09-02T10:11:56;4.60;;;3.92;;
49566;SDS011;35472;50.514;30.448;2022-09-02T10:14:26;4.80;;;3.53;;
49566;SDS011;35472;50.514;30.448;2022-09-02T10:25:16;7.38;;;5.28;;
49566;SDS011;35472;50.514;30.448;2022-09-02T10:39:28;9.30;;;5.55;;
49566;SDS011;35472;50.514;30.448;2022-09-02T10:42:01;10.15;;;7.05;;
49566;SDS011;35472;50.514;30.448;2022-09-02T10:47:38;10.98;;;7.85;;
49566;SDS011;35472;50.514;30.448;2022-09-02T10:55:58;12.50;;;6.60;;
49566;SDS011;35472;50.514;30.448;2022-09-02T10:58:32;11.38;;;7.95;;
49566;SDS011;35472;50.514;30.448;2022-09-02T11:01:06;13.27;;;7.43;;
49566;SDS011;35472;50.514;30.448;2022-09-02T11:06:21;10.38;;;6.80;;
49566;SDS011;35472;50.514;30.448;2022-09-02T11:09:00;11.30;;;8.32;;
49566;SDS011;35472;50.514;30.448;2022-09-02T11:11:31;11.00;;;6.60;;
49566;SDS011;35472;50.514;30.448;2022-09-02T11:14:20;10.82;;;7.93;;
49566;SDS011;35472;50.514;30.448;2022-09-02T11:16:50;11.95;;;5.32;;
49566;SDS011;35472;50.514;30.448;2022-09-02T11:19:28;8.30;;;5.53;;
49566;SDS011;35472;50.514;30.448;2022-09-02T11:25:20;8.15;;;5.20;;
49566;SDS011;35472;50.514;30.448;2022-09-02T11:28:05;9.18;;;5.40;;
49566;SDS011;35472;50.514;30.448;2022-09-02T11:31:04;8.93;;;6.07;;
49566;SDS011;35472;50.514;30.448;2022-09-02T11:33:42;12.85;;;6.40;;
49566;SDS011;35472;50.514;30.448;2022-09-02T11:36:15;10.98;;;5.82;;
49566;SDS011;35472;50.514;30.448;2022-09-02T11:44:34;12.18;;;6.22;;
49566;SDS011;35472;50.514;30.448;2022-09-02T11:55:44;10.70;;;6.32;;
49566;SDS011;35472;50.514;30.448;2022-09-02T11:58:29;13.57;;;8.18;;
49566;SDS011;35472;50.514;30.448;2022-09-02T12:01:04;8.93;;;7.07;;
49566;SDS011;35472;50.514;30.448;2022-09-02T12:04:03;10.55;;;7.15;;
49566;SDS011;35472;50.514;30.448;2022-09-02T12:06:31;12.32;;;7.65;;
49566;SDS011;35472;50.514;30.448;2022-09-02T12:08:58;9.68;;;6.82;;
49566;SDS011;35472;50.514;30.448;2022-09-02T12:11:37;11.68;;;7.95;;
49566;SDS011;35472;50.514;30.448;2022-09-02T12:17:05;11.20;;;6.70;;
49566;SDS011;35472;50.514;30.448;2022-09-02T12:24:49;14.40;;;9.43;;
49566;SDS011;35472;50.514;30.448;2022-09-02T12:27:40;14.00;;;7.57;;
49566;SDS011;35472;50.514;30.448;2022-09-02T12:30:06;11.90;;;8.45;;
49566;SDS011;35472;50.514;30.448;2022-09-02T12:35:12;15.85;;;7.93;;
49566;SDS011;35472;50.514;30.448;2022-09-02T12:37:56;11.35;;;7.20;;
49566;SDS011;35472;50.514;30.448;2022-09-02T12:40:52;12.13;;;8.65;;
49566;SDS011;35472;50.514;30.448;2022-09-02T12:48:42;12.75;;;7.75;;
49566;SDS011;35472;50.514;30.448;2022-09-02T12:51:34;13.35;;;7.82;;
49566;SDS011;35472;50.514;30.448;2022-09-02T12:54:15;16.33;;;7.88;;
49566;SDS011;35472;50.514;30.448;2022-09-02T12:56:46;12.48;;;8.43;;
49566;SDS011;35472;50.514;30.448;2022-09-02T12:59:18;11.82;;;7.70;;
49566;SDS011;35472;50.514;30.448;2022-09-02T13:16:15;13.95;;;9.68;;
49566;SDS011;35472;50.514;30.448;2022-09-02T13:18:51;16.55;;;9.15;;
49566;SDS011;35472;50.514;30.448;2022-09-02T13:32:30;16.67;;;9.13;;
49566;SDS011;35472;50.514;30.448;2022-09-02T13:34:59;14.48;;;9.40;;
49566;SDS011;35472;50.514;30.448;2022-09-02T13:37:29;15.70;;;8.20;;
49566;SDS011;35472;50.514;30.448;2022-09-02T13:40:02;14.55;;;8.00;;
49566;SDS011;35472;50.514;30.448;2022-09-02T13:42:31;21.23;;;12.00;;
49566;SDS011;35472;50.514;30.448;2022-09-02T13:45:16;15.25;;;9.75;;
49566;SDS011;35472;50.514;30.448;2022-09-02T13:47:44;14.07;;;9.48;;
49566;SDS011;35472;50.514;30.448;2022-09-02T13:50:13;15.50;;;8.82;;
49566;SDS011;35472;50.514;30.448;2022-09-02T13:52:43;12.63;;;9.20;;
49566;SDS011;35472;50.514;30.448;2022-09-02T13:55:12;16.77;;;9.60;;
49566;SDS011;35472;50.514;30.448;2022-09-02T13:57:42;15.10;;;9.13;;
49566;SDS011;35472;50.514;30.448;2022-09-02T14:00:12;14.88;;;8.93;;
49566;SDS011;35472;50.514;30.448;2022-09-02T14:02:40;16.80;;;10.25;;
49566;SDS011;35472;50.514;30.448;2022-09-02T14:05:20;20.08;;;10.60;;
49566;SDS011;35472;50.514;30.448;2022-09-02T14:07:49;15.30;;;9.45;;
49566;SDS011;35472;50.514;30.448;2022-09-02T14:10:18;14.38;;;9.70;;
49566;SDS011;35472;50.514;30.448;2022-09-02T14:12:46;12.65;;;8.63;;
49566;SDS011;35472;50.514;30.448;2022-09-02T14:15:13;12.60;;;8.68;;
49566;SDS011;35472;50.514;30.448;2022-09-02T14:17:40;11.15;;;8.00;;
49566;SDS011;35472;50.514;30.448;2022-09-02T14:20:19;15.43;;;8.63;;
49566;SDS011;35472;50.514;30.448;2022-09-02T14:22:56;13.55;;;8.10;;
49566;SDS011;35472;50.514;30.448;2022-09-02T14:25:23;14.98;;;8.43;;
49566;SDS011;35472;50.514;30.448;2022-09-02T14:27:54;13.70;;;9.18;;
49566;SDS011;35472;50.514;30.448;2022-09-02T14:30:32;11.57;;;7.95;;
49566;SDS011;35472;50.514;30.448;2022-09-02T14:33:15;11.13;;;8.45;;
49566;SDS011;35472;50.514;30.448;2022-09-02T14:36:00;12.45;;;8.05;;
49566;SDS011;35472;50.514;30.448;2022-09-02T14:38:32;13.27;;;8.48;;
49566;SDS011;35472;50.514;30.448;2022-09-02T14:41:09;10.50;;;7.15;;
49566;SDS011;35472;50.514;30.448;2022-09-02T14:43:41;9.75;;;6.15;;
49566;SDS011;35472;50.514;30.448;2022-09-02T14:46:13;9.97;;;6.87;;
49566;SDS011;35472;50.514;30.448;2022-09-02T14:48:51;12.07;;;7.35;;
49566;SDS011;35472;50.514;30.448;2022-09-02T14:51:22;12.85;;;9.25;;
49566;SDS011;35472;50.514;30.448;2022-09-02T14:54:09;13.40;;;8.65;;
49566;SDS011;35472;50.514;30.448;2022-09-02T14:56:49;14.68;;;9.80;;
49566;SDS011;35472;50.514;30.448;2022-09-02T14:59:16;12.70;;;9.55;;
49566;SDS011;35472;50.514;30.448;2022-09-02T15:01:43;16.05;;;8.70;;
49566;SDS011;35472;50.514;30.448;2022-09-02T15:04:12;16.08;;;9.80;;
49566;SDS011;35472;50.514;30.448;2022-09-02T15:06:38;18.33;;;9.43;;
49566;SDS011;35472;50.514;30.448;2022-09-02T15:09:04;14.57;;;9.43;;
49566;SDS011;35472;50.514;30.448;2022-09-02T15:11:29;14.95;;;9.35;;
49566;SDS011;35472;50.514;30.448;2022-09-02T15:13:55;15.35;;;8.85;;
49566;SDS011;35472;50.514;30.448;2022-09-02T15:16:20;15.30;;;9.35;;
49566;SDS011;35472;50.514;30.448;2022-09-02T15:18:47;13.00;;;9.40;;
49566;SDS011;35472;50.514;30.448;2022-09-02T15:21:12;14.10;;;10.05;;
49566;SDS011;35472;50.514;30.448;2022-09-02T15:23:38;14.68;;;9.50;;
49566;SDS011;35472;50.514;30.448;2022-09-02T15:26:04;17.42;;;9.50;;
49566;SDS011;35472;50.514;30.448;2022-09-02T15:28:30;12.65;;;8.95;;
49566;SDS011;35472;50.514;30.448;2022-09-02T15:30:59;12.73;;;8.15;;
49566;SDS011;35472;50.514;30.448;2022-09-02T15:33:26;15.05;;;8.55;;
49566;SDS011;35472;50.514;30.448;2022-09-02T15:35:52;14.85;;;7.45;;
49566;SDS011;35472;50.514;30.448;2022-09-02T15:38:19;11.38;;;7.65;;
49566;SDS011;35472;50.514;30.448;2022-09-02T15:40:44;13.57;;;7.95;;
49566;SDS011;35472;50.514;30.448;2022-09-02T15:43:10;13.13;;;8.07;;
49566;SDS011;35472;50.514;30.448;2022-09-02T15:45:46;12.13;;;7.28;;
49566;SDS011;35472;50.514;30.448;2022-09-02T15:48:12;11.23;;;8.68;;
49566;SDS011;35472;50.514;30.448;2022-09-02T15:50:38;17.45;;;9.23;;
49566;SDS011;35472;50.514;30.448;2022-09-02T15:53:03;11.40;;;7.65;;
49566;SDS011;35472;50.514;30.448;2022-09-02T15:55:33;12.00;;;7.75;;
49566;SDS011;35472;50.514;30.448;2022-09-02T15:57:58;14.30;;;7.85;;
49566;SDS011;35472;50.514;30.448;2022-09-02T16:00:25;13.85;;;7.85;;
49566;SDS011;35472;50.514;30.448;2022-09-02T16:02:51;10.40;;;7.50;;
49566;SDS011;35472;50.514;30.448;2022-09-02T16:05:18;10.93;;;7.70;;
49566;SDS011;35472;50.514;30.448;2022-09-02T16:07:45;11.98;;;7.55;;
49566;SDS011;35472;50.514;30.448;2022-09-02T16:10:10;13.98;;;8.15;;
49566;SDS011;35472;50.514;30.448;2022-09-02T16:12:36;12.35;;;8.52;;
49566;SDS011;35472;50.514;30.448;2022-09-02T16:15:01;18.30;;;12.18;;
49566;SDS011;35472;50.514;30.448;2022-09-02T16:17:28;12.95;;;7.85;;
49566;SDS011;35472;50.514;30.448;2022-09-02T16:19:53;12.38;;;7.70;;
49566;SDS011;35472;50.514;30.448;2022-09-02T16:22:18;15.48;;;8.52;;
49566;SDS011;35472;50.514;30.448;2022-09-02T16:24:44;15.05;;;8.93;;
49566;SDS011;35472;50.514;30.448;2022-09-02T16:27:09;12.95;;;9.00;;
49566;SDS011;35472;50.514;30.448;2022-09-02T16:29:35;12.15;;;7.57;;
49566;SDS011;35472;50.514;30.448;2022-09-02T16:32:01;12.32;;;7.53;;
49566;SDS011;35472;50.514;30.448;2022-09-02T16:34:27;12.63;;;7.70;;
49566;SDS011;35472;50.514;30.448;2022-09-02T16:36:52;15.27;;;7.72;;
49566;SDS011;35472;50.514;30.448;2022-09-02T16:39:18;16.20;;;8.02;;
49566;SDS011;35472;50.514;30.448;2022-09-02T16:41:48;13.80;;;7.65;;
49566;SDS011;35472;50.514;30.448;2022-09-02T16:44:17;16.50;;;9.05;;
49566;SDS011;35472;50.514;30.448;2022-09-02T16:46:44;16.60;;;8.65;;
49566;SDS011;35472;50.514;30.448;2022-09-02T16:49:12;16.08;;;7.65;;
49566;SDS011;35472;50.514;30.448;2022-09-02T16:51:42;13.63;;;7.95;;
49566;SDS011;35472;50.514;30.448;2022-09-02T16:54:09;14.57;;;7.75;;
49566;SDS011;35472;50.514;30.448;2022-09-02T16:56:35;12.90;;;7.97;;
49566;SDS011;35472;50.514;30.448;2022-09-02T16:59:02;12.95;;;7.55;;
49566;SDS011;35472;50.514;30.448;2022-09-02T17:01:29;10.93;;;6.07;;
49566;SDS011;35472;50.514;30.448;2022-09-02T17:03:55;17.30;;;8.90;;
49566;SDS011;35472;50.514;30.448;2022-09-02T17:06:21;13.00;;;8.13;;
49566;SDS011;35472;50.514;30.448;2022-09-02T17:08:46;15.52;;;7.85;;